createdAt,value
2017-04-21T00:00:16.429Z,2.5
2017-04-21T00:00:35.055Z,2.5
2017-04-21T00:00:53.685Z,2.5
2017-04-21T00:01:12.325Z,2.5
2017-04-21T00:01:30.956Z,2.4
2017-04-21T00:01:49.588Z,2.4
2017-04-21T00:02:08.218Z,2.4
2017-04-21T00:02:26.841Z,2.4
2017-04-21T00:02:45.530Z,2.4
2017-04-21T00:03:04.155Z,2.4
2017-04-21T00:03:22.779Z,2.4
2017-04-21T00:03:41.405Z,2.4
2017-04-21T00:04:00.037Z,2.4
2017-04-21T00:04:18.666Z,2.4
2017-04-21T00:04:37.303Z,2.4
2017-04-21T00:04:55.931Z,2.4
2017-04-21T00:05:14.562Z,2.4
2017-04-21T00:05:33.187Z,2.4
2017-04-21T00:05:51.815Z,2.4
2017-04-21T00:06:10.474Z,2.3
2017-04-21T00:06:29.105Z,2.3
2017-04-21T00:06:47.728Z,2.4
2017-04-21T00:07:06.354Z,2.4
2017-04-21T00:07:24.984Z,2.4
2017-04-21T00:07:43.614Z,2.4
2017-04-21T00:08:02.271Z,2.4
2017-04-21T00:08:20.897Z,2.4
2017-04-21T00:08:39.524Z,2.4
2017-04-21T00:08:58.149Z,2.4
2017-04-21T00:09:16.779Z,2.4
2017-04-21T00:09:35.410Z,2.4
2017-04-21T00:09:54.036Z,2.4
2017-04-21T00:10:12.663Z,2.4
2017-04-21T00:10:31.288Z,2.4
2017-04-21T00:10:49.916Z,2.4
2017-04-21T00:11:08.542Z,2.4
2017-04-21T00:11:27.225Z,2.4
2017-04-21T00:11:45.863Z,2.4
2017-04-21T00:12:04.497Z,2.4
2017-04-21T00:12:23.127Z,2.4
2017-04-21T00:12:41.759Z,2.4
2017-04-21T00:13:00.393Z,2.4
2017-04-21T00:13:19.044Z,2.4
2017-04-21T00:13:37.675Z,2.4
2017-04-21T00:13:56.305Z,2.4
2017-04-21T00:14:14.933Z,2.4
2017-04-21T00:14:33.565Z,2.4
2017-04-21T00:14:52.226Z,2.4
2017-04-21T00:15:10.853Z,2.4
2017-04-21T00:15:29.481Z,2.4
2017-04-21T00:15:48.109Z,2.4
2017-04-21T00:16:06.732Z,2.4
2017-04-21T00:16:25.365Z,2.4
2017-04-21T00:16:43.996Z,2.4
2017-04-21T00:17:02.624Z,2.4
2017-04-21T00:17:21.253Z,2.4
2017-04-21T00:17:39.887Z,2.4
2017-04-21T00:17:58.535Z,2.4
2017-04-21T00:18:17.187Z,2.4
2017-04-21T00:18:35.824Z,2.4
2017-04-21T00:18:54.484Z,2.4
2017-04-21T00:19:13.110Z,2.4
2017-04-21T00:19:31.734Z,2.4
2017-04-21T00:19:50.366Z,2.4
2017-04-21T00:20:09.000Z,2.4
2017-04-21T00:20:27.637Z,2.4
2017-04-21T00:20:46.264Z,2.4
2017-04-21T00:21:04.889Z,2.4
2017-04-21T00:21:23.516Z,2.4
2017-04-21T00:21:42.171Z,2.4
2017-04-21T00:22:00.796Z,2.4
2017-04-21T00:22:19.424Z,2.4
2017-04-21T00:22:38.063Z,2.4
2017-04-21T00:22:56.685Z,2.4
2017-04-21T00:23:15.320Z,2.4
2017-04-21T00:23:33.950Z,2.4
2017-04-21T00:23:52.604Z,2.4
2017-04-21T00:24:11.232Z,2.4
2017-04-21T00:24:29.859Z,2.4
2017-04-21T00:24:48.489Z,2.4
2017-04-21T00:25:07.147Z,2.4
2017-04-21T00:25:25.773Z,2.4
2017-04-21T00:25:44.403Z,2.4
2017-04-21T00:26:03.029Z,2.4
2017-04-21T00:26:21.653Z,2.4
2017-04-21T00:26:40.305Z,2.4
2017-04-21T00:26:58.930Z,2.4
2017-04-21T00:27:17.566Z,2.4
2017-04-21T00:27:36.197Z,2.4
2017-04-21T00:27:54.828Z,2.4
2017-04-21T00:28:13.461Z,2.4
2017-04-21T00:28:32.116Z,2.4
2017-04-21T00:28:50.748Z,2.4
2017-04-21T00:29:09.385Z,2.4
2017-04-21T00:29:28.015Z,2.4
2017-04-21T00:29:46.646Z,2.4
2017-04-21T00:30:05.273Z,2.4
2017-04-21T00:30:23.905Z,2.4
2017-04-21T00:30:42.535Z,2.4
2017-04-21T00:31:01.161Z,2.4
2017-04-21T00:31:19.787Z,2.4
2017-04-21T00:31:38.412Z,2.4
2017-04-21T00:31:57.070Z,2.4
2017-04-21T00:32:15.700Z,2.4
2017-04-21T00:32:34.329Z,2.4
2017-04-21T00:32:52.958Z,2.4
2017-04-21T00:33:11.584Z,2.4
2017-04-21T00:33:30.214Z,2.4
2017-04-21T00:33:48.846Z,2.4
2017-04-21T00:34:07.474Z,2.4
2017-04-21T00:34:26.130Z,2.4
2017-04-21T00:34:44.754Z,2.4
2017-04-21T00:35:03.385Z,2.4
2017-04-21T00:35:22.043Z,2.4
2017-04-21T00:35:40.667Z,2.4
2017-04-21T00:35:59.392Z,2.4
2017-04-21T00:36:18.021Z,2.4
2017-04-21T00:36:36.646Z,2.4
2017-04-21T00:36:55.280Z,2.4
2017-04-21T00:37:13.909Z,2.4
2017-04-21T00:37:32.546Z,2.4
2017-04-21T00:37:51.175Z,2.4
2017-04-21T00:38:09.805Z,2.4
2017-04-21T00:38:28.436Z,2.4
2017-04-21T00:38:47.090Z,2.4
2017-04-21T00:39:05.717Z,2.4
2017-04-21T00:39:24.342Z,2.4
2017-04-21T00:39:42.995Z,2.4
2017-04-21T00:40:01.624Z,2.4
2017-04-21T00:40:20.255Z,2.3
2017-04-21T00:40:38.881Z,2.3
2017-04-21T00:40:57.506Z,2.3
2017-04-21T00:41:16.143Z,2.3
2017-04-21T00:41:34.774Z,2.3
2017-04-21T00:41:53.411Z,2.3
2017-04-21T00:42:12.076Z,2.3
2017-04-21T00:42:30.701Z,2.3
2017-04-21T00:42:49.337Z,2.3
2017-04-21T00:43:07.968Z,2.3
2017-04-21T00:43:26.594Z,2.3
2017-04-21T00:43:45.225Z,2.3
2017-04-21T00:44:03.857Z,2.3
2017-04-21T00:44:22.489Z,2.3
2017-04-21T00:44:41.119Z,2.2
2017-04-21T00:44:59.775Z,2.2
2017-04-21T00:45:18.402Z,2.3
2017-04-21T00:45:37.062Z,2.2
2017-04-21T00:45:55.688Z,2.3
2017-04-21T00:46:14.318Z,2.2
2017-04-21T00:46:32.950Z,2.2
2017-04-21T00:46:51.576Z,2.2
2017-04-21T00:47:10.202Z,2.2
2017-04-21T00:47:28.831Z,2.2
2017-04-21T00:47:47.456Z,2.2
2017-04-21T00:48:06.085Z,2.2
2017-04-21T00:48:24.716Z,2.2
2017-04-21T00:48:43.341Z,2.2
2017-04-21T00:49:02.000Z,2.2
2017-04-21T00:49:20.629Z,2.2
2017-04-21T00:49:39.259Z,2.2
2017-04-21T00:49:57.893Z,2.2
2017-04-21T00:50:16.547Z,2.2
2017-04-21T00:50:35.176Z,2.2
2017-04-21T00:50:53.804Z,2.2
2017-04-21T00:51:12.430Z,2.2
2017-04-21T00:51:31.057Z,2.2
2017-04-21T00:51:49.682Z,2.2
2017-04-21T00:52:08.310Z,2.2
2017-04-21T00:52:26.964Z,2.2
2017-04-21T00:52:45.594Z,2.2
2017-04-21T00:53:04.222Z,2.2
2017-04-21T00:53:22.849Z,2.2
2017-04-21T00:53:41.474Z,2.2
2017-04-21T00:54:00.112Z,2.2
2017-04-21T00:54:18.740Z,2.2
2017-04-21T00:54:37.370Z,2.2
2017-04-21T00:54:56.002Z,2.2
2017-04-21T00:55:14.668Z,2.2
2017-04-21T00:55:33.307Z,2.2
2017-04-21T00:55:51.968Z,2.2
2017-04-21T00:56:10.597Z,2.2
2017-04-21T00:56:29.224Z,2.2
2017-04-21T00:56:47.851Z,2.2
2017-04-21T00:57:06.505Z,2.2
2017-04-21T00:57:25.137Z,2.2
2017-04-21T00:57:43.769Z,2.2
2017-04-21T00:58:02.401Z,2.2
2017-04-21T00:58:21.028Z,2.2
2017-04-21T00:58:39.660Z,2.2
2017-04-21T00:58:58.287Z,2.2
2017-04-21T00:59:16.942Z,2.2
2017-04-21T00:59:35.571Z,2.2
2017-04-21T00:59:54.196Z,2.2
2017-04-21T01:00:12.827Z,2.2
2017-04-21T01:00:31.457Z,2.2
2017-04-21T01:00:50.112Z,2.3
2017-04-21T01:01:08.739Z,2.3
2017-04-21T01:01:27.363Z,2.3
2017-04-21T01:01:45.987Z,2.3
2017-04-21T01:02:04.616Z,2.3
2017-04-21T01:02:23.247Z,2.3
2017-04-21T01:02:41.905Z,2.3
2017-04-21T01:03:00.537Z,2.3
2017-04-21T01:03:19.167Z,2.3
2017-04-21T01:03:37.794Z,2.3
2017-04-21T01:03:56.425Z,2.4
2017-04-21T01:04:15.055Z,2.3
2017-04-21T01:04:33.680Z,2.4
2017-04-21T01:04:52.305Z,2.4
2017-04-21T01:05:10.934Z,2.4
2017-04-21T01:05:29.621Z,2.3
2017-04-21T01:05:48.271Z,2.3
2017-04-21T01:06:06.926Z,2.3
2017-04-21T01:06:25.555Z,2.3
2017-04-21T01:06:44.181Z,2.3
2017-04-21T01:07:02.809Z,2.3
2017-04-21T01:07:21.436Z,2.3
2017-04-21T01:07:40.065Z,2.4
2017-04-21T01:07:58.692Z,2.4
2017-04-21T01:08:17.320Z,2.4
2017-04-21T01:08:35.947Z,2.4
2017-04-21T01:08:54.576Z,2.3
2017-04-21T01:09:13.202Z,2.3
2017-04-21T01:09:31.852Z,2.4
2017-04-21T01:09:50.478Z,2.4
2017-04-21T01:10:09.107Z,2.4
2017-04-21T01:10:27.739Z,2.4
2017-04-21T01:10:46.368Z,2.4
2017-04-21T01:11:04.999Z,2.4
2017-04-21T01:11:23.655Z,2.4
2017-04-21T01:11:42.278Z,2.5
2017-04-21T01:12:00.909Z,2.5
2017-04-21T01:12:19.661Z,2.5
2017-04-21T01:12:38.295Z,2.5
2017-04-21T01:12:56.954Z,2.5
2017-04-21T01:13:15.581Z,2.5
2017-04-21T01:13:34.205Z,2.5
2017-04-21T01:13:52.831Z,2.5
2017-04-21T01:14:11.461Z,2.5
2017-04-21T01:14:30.091Z,2.5
2017-04-21T01:14:48.729Z,2.5
2017-04-21T01:15:07.362Z,2.5
2017-04-21T01:15:25.992Z,2.5
2017-04-21T01:15:44.622Z,2.5
2017-04-21T01:16:03.252Z,2.5
2017-04-21T01:16:21.909Z,2.5
2017-04-21T01:16:40.541Z,2.5
2017-04-21T01:16:59.173Z,2.5
2017-04-21T01:17:17.813Z,2.5
2017-04-21T01:17:36.440Z,2.5
2017-04-21T01:17:55.074Z,2.4
2017-04-21T01:18:13.710Z,2.4
2017-04-21T01:18:32.342Z,2.4
2017-04-21T01:18:50.967Z,2.4
2017-04-21T01:19:09.591Z,2.4
2017-04-21T01:19:28.216Z,2.4
2017-04-21T01:19:46.878Z,2.4
2017-04-21T01:20:05.514Z,2.4
2017-04-21T01:20:24.148Z,2.4
2017-04-21T01:20:42.775Z,2.4
2017-04-21T01:21:01.399Z,2.4
2017-04-21T01:21:20.024Z,2.4
2017-04-21T01:21:38.650Z,2.4
2017-04-21T01:21:57.305Z,2.5
2017-04-21T01:22:15.934Z,2.5
2017-04-21T01:22:34.832Z,2.5
2017-04-21T01:22:53.462Z,2.5
2017-04-21T01:23:12.089Z,2.5
2017-04-21T01:23:30.717Z,2.5
2017-04-21T01:23:49.344Z,2.5
2017-04-21T01:24:07.974Z,2.5
2017-04-21T01:24:26.625Z,2.5
2017-04-21T01:24:45.264Z,2.5
2017-04-21T01:25:03.897Z,2.5
2017-04-21T01:25:22.525Z,2.5
2017-04-21T01:25:41.152Z,2.5
2017-04-21T01:25:59.779Z,2.5
2017-04-21T01:26:18.407Z,2.5
2017-04-21T01:26:37.035Z,2.5
2017-04-21T01:26:55.664Z,2.5
2017-04-21T01:27:14.314Z,2.5
2017-04-21T01:27:32.951Z,2.5
2017-04-21T01:27:51.593Z,2.5
2017-04-21T01:28:10.234Z,2.5
2017-04-21T01:28:28.861Z,2.5
2017-04-21T01:28:47.481Z,2.5
2017-04-21T01:29:06.105Z,2.5
2017-04-21T01:29:24.740Z,2.5
2017-04-21T01:29:43.368Z,2.5
2017-04-21T01:30:01.998Z,2.5
2017-04-21T01:30:20.633Z,2.5
2017-04-21T01:30:39.263Z,2.5
2017-04-21T01:30:57.897Z,2.5
2017-04-21T01:31:16.542Z,2.4
2017-04-21T01:31:35.210Z,2.4
2017-04-21T01:31:53.835Z,2.4
2017-04-21T01:32:12.457Z,2.4
2017-04-21T01:32:31.113Z,2.4
2017-04-21T01:32:49.741Z,2.5
2017-04-21T01:33:08.371Z,2.5
2017-04-21T01:33:27.000Z,2.5
2017-04-21T01:33:45.628Z,2.5
2017-04-21T01:34:04.264Z,2.5
2017-04-21T01:34:22.896Z,2.5
2017-04-21T01:34:41.538Z,2.5
2017-04-21T01:35:00.234Z,2.5
2017-04-21T01:35:18.859Z,2.5
2017-04-21T01:35:37.485Z,2.5
2017-04-21T01:35:56.112Z,2.5
2017-04-21T01:36:14.743Z,2.5
2017-04-21T01:36:33.367Z,2.5
2017-04-21T01:36:51.990Z,2.5
2017-04-21T01:37:10.620Z,2.5
2017-04-21T01:37:29.249Z,2.5
2017-04-21T01:37:47.887Z,2.5
2017-04-21T01:38:06.524Z,2.6
2017-04-21T01:38:25.412Z,2.6
2017-04-21T01:38:44.037Z,2.6
2017-04-21T01:39:02.665Z,2.6
2017-04-21T01:39:21.291Z,2.6
2017-04-21T01:39:39.922Z,2.6
2017-04-21T01:39:58.549Z,2.6
2017-04-21T01:40:17.177Z,2.6
2017-04-21T01:40:35.803Z,2.6
2017-04-21T01:40:54.422Z,2.6
2017-04-21T01:41:13.050Z,2.6
2017-04-21T01:41:31.705Z,2.6
2017-04-21T01:41:50.331Z,2.5
2017-04-21T01:42:08.959Z,2.5
2017-04-21T01:42:27.582Z,2.6
2017-04-21T01:42:46.229Z,2.5
2017-04-21T01:43:04.882Z,2.6
2017-04-21T01:43:23.512Z,2.6
2017-04-21T01:43:42.139Z,2.6
2017-04-21T01:44:00.770Z,2.6
2017-04-21T01:44:19.401Z,2.6
2017-04-21T01:44:38.036Z,2.6
2017-04-21T01:44:56.693Z,2.6
2017-04-21T01:45:15.331Z,2.7
2017-04-21T01:45:33.952Z,2.7
2017-04-21T01:45:52.576Z,2.7
2017-04-21T01:46:11.199Z,2.7
2017-04-21T01:46:29.825Z,2.7
2017-04-21T01:46:48.452Z,2.7
2017-04-21T01:47:07.084Z,2.6
2017-04-21T01:47:25.712Z,2.7
2017-04-21T01:47:44.350Z,2.6
2017-04-21T01:48:02.979Z,2.6
2017-04-21T01:48:21.636Z,2.6
2017-04-21T01:48:40.262Z,2.6
2017-04-21T01:48:58.896Z,2.6
2017-04-21T01:49:17.530Z,2.6
2017-04-21T01:49:36.154Z,2.6
2017-04-21T01:49:54.779Z,2.7
2017-04-21T01:50:13.417Z,2.7
2017-04-21T01:50:32.047Z,2.7
2017-04-21T01:50:50.674Z,2.7
2017-04-21T01:51:09.302Z,2.7
2017-04-21T01:51:27.936Z,2.7
2017-04-21T01:51:46.588Z,2.7
2017-04-21T01:52:05.224Z,2.7
2017-04-21T01:52:23.862Z,2.7
2017-04-21T01:52:42.488Z,2.7
2017-04-21T01:53:01.115Z,2.7
2017-04-21T01:53:19.738Z,2.7
2017-04-21T01:53:38.383Z,2.7
2017-04-21T01:53:57.008Z,2.7
2017-04-21T01:54:15.747Z,2.7
2017-04-21T01:54:34.376Z,2.7
2017-04-21T01:54:53.002Z,2.7
2017-04-21T01:55:11.659Z,2.7
2017-04-21T01:55:30.287Z,2.7
2017-04-21T01:55:48.915Z,2.7
2017-04-21T01:56:07.545Z,2.7
2017-04-21T01:56:26.169Z,2.7
2017-04-21T01:56:44.797Z,2.7
2017-04-21T01:57:03.428Z,2.7
2017-04-21T01:57:22.060Z,2.7
2017-04-21T01:57:40.848Z,2.7
2017-04-21T01:57:59.503Z,2.7
2017-04-21T01:58:18.133Z,2.7
2017-04-21T01:58:36.790Z,2.7
2017-04-21T01:58:55.429Z,2.8
2017-04-21T01:59:14.055Z,2.8
2017-04-21T01:59:32.680Z,2.8
2017-04-21T01:59:51.308Z,2.7
2017-04-21T02:00:09.944Z,2.7
2017-04-21T02:00:28.574Z,2.7
2017-04-21T02:00:47.199Z,2.7
2017-04-21T02:01:05.825Z,2.7
2017-04-21T02:01:24.461Z,2.7
2017-04-21T02:01:43.089Z,2.7
2017-04-21T02:02:01.742Z,2.7
2017-04-21T02:02:20.368Z,2.7
2017-04-21T02:02:38.989Z,2.7
2017-04-21T02:02:57.616Z,2.7
2017-04-21T02:03:16.243Z,2.7
2017-04-21T02:03:34.875Z,2.7
2017-04-21T02:03:53.509Z,2.7
2017-04-21T02:04:12.162Z,2.7
2017-04-21T02:04:30.974Z,2.7
2017-04-21T02:04:49.605Z,2.7
2017-04-21T02:05:08.231Z,2.7
2017-04-21T02:05:26.856Z,2.7
2017-04-21T02:05:45.482Z,2.7
2017-04-21T02:06:04.116Z,2.7
2017-04-21T02:06:22.746Z,2.7
2017-04-21T02:06:41.401Z,2.7
2017-04-21T02:07:00.064Z,2.7
2017-04-21T02:07:18.694Z,2.7
2017-04-21T02:07:37.322Z,2.7
2017-04-21T02:07:55.949Z,2.7
2017-04-21T02:08:14.577Z,2.7
2017-04-21T02:08:33.207Z,2.7
2017-04-21T02:08:51.834Z,2.7
2017-04-21T02:09:10.465Z,2.7
2017-04-21T02:09:29.110Z,2.7
2017-04-21T02:09:47.739Z,2.7
2017-04-21T02:10:06.381Z,2.7
2017-04-21T02:10:25.043Z,2.7
2017-04-21T02:10:43.669Z,2.7
2017-04-21T02:11:02.296Z,2.7
2017-04-21T02:11:20.919Z,2.7
2017-04-21T02:11:39.549Z,2.7
2017-04-21T02:11:58.177Z,2.7
2017-04-21T02:12:16.806Z,2.7
2017-04-21T02:12:35.428Z,2.7
2017-04-21T02:12:54.056Z,2.7
2017-04-21T02:13:12.709Z,2.7
2017-04-21T02:13:31.339Z,2.7
2017-04-21T02:13:49.995Z,2.7
2017-04-21T02:14:08.627Z,2.7
2017-04-21T02:14:27.259Z,2.7
2017-04-21T02:14:45.909Z,2.7
2017-04-21T02:15:04.539Z,2.7
2017-04-21T02:15:23.169Z,2.8
2017-04-21T02:15:41.794Z,2.8
2017-04-21T02:16:00.418Z,2.8
2017-04-21T02:16:19.046Z,2.8
2017-04-21T02:16:37.675Z,2.8
2017-04-21T02:16:56.308Z,2.8
2017-04-21T02:17:14.968Z,2.8
2017-04-21T02:17:33.598Z,2.8
2017-04-21T02:17:52.223Z,2.8
2017-04-21T02:18:10.855Z,2.8
2017-04-21T02:18:29.483Z,2.8
2017-04-21T02:18:48.111Z,2.8
2017-04-21T02:19:06.745Z,2.8
2017-04-21T02:19:25.372Z,2.8
2017-04-21T02:19:44.005Z,2.8
2017-04-21T02:20:02.641Z,2.8
2017-04-21T02:20:21.278Z,2.8
2017-04-21T02:20:39.929Z,2.8
2017-04-21T02:20:58.553Z,2.8
2017-04-21T02:21:17.180Z,2.8
2017-04-21T02:21:35.811Z,2.8
2017-04-21T02:21:54.438Z,2.8
2017-04-21T02:22:13.068Z,2.7
2017-04-21T02:22:31.712Z,2.7
2017-04-21T02:22:50.337Z,2.7
2017-04-21T02:23:08.971Z,2.7
2017-04-21T02:23:27.600Z,2.7
2017-04-21T02:23:46.226Z,2.7
2017-04-21T02:24:04.867Z,2.7
2017-04-21T02:24:23.494Z,2.7
2017-04-21T02:24:42.123Z,2.7
2017-04-21T02:25:00.754Z,2.7
2017-04-21T02:25:19.413Z,2.7
2017-04-21T02:25:38.042Z,2.7
2017-04-21T02:25:56.680Z,2.7
2017-04-21T02:26:15.306Z,2.7
2017-04-21T02:26:33.932Z,2.7
2017-04-21T02:26:52.558Z,2.7
2017-04-21T02:27:11.187Z,2.7
2017-04-21T02:27:29.818Z,2.7
2017-04-21T02:27:48.444Z,2.7
2017-04-21T02:28:07.076Z,2.7
2017-04-21T02:28:25.723Z,2.7
2017-04-21T02:28:44.352Z,2.7
2017-04-21T02:29:02.979Z,2.7
2017-04-21T02:29:21.644Z,2.7
2017-04-21T02:29:40.275Z,2.7
2017-04-21T02:29:58.907Z,2.7
2017-04-21T02:30:17.534Z,2.7
2017-04-21T02:30:36.177Z,2.8
2017-04-21T02:30:54.815Z,2.8
2017-04-21T02:31:13.439Z,2.7
2017-04-21T02:31:32.065Z,2.7
2017-04-21T02:31:50.693Z,2.7
2017-04-21T02:32:09.319Z,2.7
2017-04-21T02:32:27.942Z,2.7
2017-04-21T02:32:46.593Z,2.7
2017-04-21T02:33:05.221Z,2.7
2017-04-21T02:33:23.850Z,2.7
2017-04-21T02:33:42.478Z,2.7
2017-04-21T02:34:01.150Z,2.7
2017-04-21T02:34:19.782Z,2.7
2017-04-21T02:34:38.413Z,2.7
2017-04-21T02:34:57.043Z,2.7
2017-04-21T02:35:15.670Z,2.7
2017-04-21T02:35:34.295Z,2.7
2017-04-21T02:35:52.952Z,2.7
2017-04-21T02:36:11.611Z,2.7
2017-04-21T02:36:30.243Z,2.7
2017-04-21T02:36:48.876Z,2.8
2017-04-21T02:37:07.504Z,2.8
2017-04-21T02:37:26.132Z,2.8
2017-04-21T02:37:44.760Z,2.8
2017-04-21T02:38:03.389Z,2.8
2017-04-21T02:38:22.018Z,2.8
2017-04-21T02:38:40.639Z,2.8
2017-04-21T02:38:59.258Z,2.8
2017-04-21T02:39:17.882Z,2.8
2017-04-21T02:39:36.537Z,2.8
2017-04-21T02:39:55.164Z,2.8
2017-04-21T02:40:13.789Z,2.8
2017-04-21T02:40:32.411Z,2.8
2017-04-21T02:40:51.088Z,2.8
2017-04-21T02:41:09.741Z,2.8
2017-04-21T02:41:28.368Z,2.8
2017-04-21T02:41:46.995Z,2.8
2017-04-21T02:42:05.642Z,2.8
2017-04-21T02:42:24.277Z,2.8
2017-04-21T02:42:42.903Z,2.8
2017-04-21T02:43:01.561Z,2.8
2017-04-21T02:43:20.185Z,2.8
2017-04-21T02:43:38.816Z,2.8
2017-04-21T02:43:57.448Z,2.8
2017-04-21T02:44:16.231Z,2.8
2017-04-21T02:44:34.885Z,2.8
2017-04-21T02:44:53.514Z,2.8
2017-04-21T02:45:12.142Z,2.8
2017-04-21T02:45:30.767Z,2.8
2017-04-21T02:45:49.402Z,2.8
2017-04-21T02:46:08.032Z,2.8
2017-04-21T02:46:26.687Z,2.8
2017-04-21T02:46:45.317Z,2.8
2017-04-21T02:47:03.943Z,2.8
2017-04-21T02:47:22.570Z,2.8
2017-04-21T02:47:41.195Z,2.9
2017-04-21T02:47:59.861Z,2.8
2017-04-21T02:48:18.490Z,2.8
2017-04-21T02:48:37.117Z,2.8
2017-04-21T02:48:55.758Z,2.8
2017-04-21T02:49:14.393Z,2.8
2017-04-21T02:49:33.021Z,2.8
2017-04-21T02:49:51.654Z,2.8
2017-04-21T02:50:10.300Z,2.8
2017-04-21T02:50:28.930Z,2.8
2017-04-21T02:50:47.560Z,2.8
2017-04-21T02:51:06.180Z,2.8
2017-04-21T02:51:24.834Z,2.8
2017-04-21T02:51:43.501Z,2.8
2017-04-21T02:52:02.136Z,2.9
2017-04-21T02:52:20.765Z,2.9
2017-04-21T02:52:39.391Z,2.9
2017-04-21T02:52:58.035Z,2.9
2017-04-21T02:53:16.667Z,2.9
2017-04-21T02:53:35.293Z,2.9
2017-04-21T02:53:53.936Z,2.9
2017-04-21T02:54:12.577Z,2.9
2017-04-21T02:54:31.218Z,2.9
2017-04-21T02:54:49.867Z,2.9
2017-04-21T02:55:08.494Z,2.9
2017-04-21T02:55:27.118Z,2.9
2017-04-21T02:55:45.746Z,2.9
2017-04-21T02:56:04.379Z,2.9
2017-04-21T02:56:23.008Z,2.9
2017-04-21T02:56:41.633Z,2.9
2017-04-21T02:57:00.274Z,2.9
2017-04-21T02:57:18.897Z,2.9
2017-04-21T02:57:37.530Z,2.9
2017-04-21T02:57:56.171Z,2.9
2017-04-21T02:58:14.836Z,2.9
2017-04-21T02:58:33.473Z,2.9
2017-04-21T02:58:52.126Z,2.9
2017-04-21T02:59:10.763Z,2.9
2017-04-21T02:59:29.398Z,2.9
2017-04-21T02:59:48.024Z,2.9
2017-04-21T03:00:06.655Z,2.9
2017-04-21T03:00:25.281Z,2.9
2017-04-21T03:00:43.913Z,2.9
2017-04-21T03:01:02.542Z,2.9
2017-04-21T03:01:21.179Z,2.9
2017-04-21T03:01:39.835Z,2.9
2017-04-21T03:01:58.460Z,2.9
2017-04-21T03:02:17.114Z,2.9
2017-04-21T03:02:35.744Z,2.9
2017-04-21T03:02:54.379Z,2.9
2017-04-21T03:03:13.010Z,2.9
2017-04-21T03:03:31.652Z,2.9
2017-04-21T03:03:50.285Z,2.9
2017-04-21T03:04:08.914Z,2.9
2017-04-21T03:04:27.541Z,2.9
2017-04-21T03:04:46.183Z,2.9
2017-04-21T03:05:04.825Z,2.8
2017-04-21T03:05:23.453Z,2.9
2017-04-21T03:05:42.079Z,2.9
2017-04-21T03:06:00.704Z,2.9
2017-04-21T03:06:19.331Z,2.9
2017-04-21T03:06:37.957Z,2.9
2017-04-21T03:06:56.586Z,2.9
2017-04-21T03:07:15.212Z,2.9
2017-04-21T03:07:33.846Z,2.9
2017-04-21T03:07:52.475Z,2.9
2017-04-21T03:08:11.107Z,2.9
2017-04-21T03:08:29.760Z,2.9
2017-04-21T03:08:48.389Z,2.9
2017-04-21T03:09:07.019Z,2.9
2017-04-21T03:09:25.647Z,2.9
2017-04-21T03:09:44.269Z,2.9
2017-04-21T03:10:02.895Z,2.9
2017-04-21T03:10:21.528Z,2.9
2017-04-21T03:10:40.153Z,2.9
2017-04-21T03:10:58.790Z,2.9
2017-04-21T03:11:17.426Z,2.8
2017-04-21T03:11:36.052Z,2.8
2017-04-21T03:11:54.713Z,2.9
2017-04-21T03:12:13.338Z,2.9
2017-04-21T03:12:32.152Z,2.9
2017-04-21T03:12:50.803Z,2.9
2017-04-21T03:13:09.435Z,2.9
2017-04-21T03:13:28.063Z,2.9
2017-04-21T03:13:46.692Z,2.9
2017-04-21T03:14:05.336Z,2.9
2017-04-21T03:14:23.956Z,2.9
2017-04-21T03:14:42.585Z,2.9
2017-04-21T03:15:01.239Z,2.9
2017-04-21T03:15:19.869Z,2.9
2017-04-21T03:15:38.494Z,2.9
2017-04-21T03:15:57.121Z,2.9
2017-04-21T03:16:15.749Z,2.9
2017-04-21T03:16:34.379Z,2.9
2017-04-21T03:16:53.008Z,2.9
2017-04-21T03:17:11.640Z,2.9
2017-04-21T03:17:30.272Z,2.9
2017-04-21T03:17:48.897Z,2.9
2017-04-21T03:18:07.535Z,2.9
2017-04-21T03:18:26.182Z,2.9
2017-04-21T03:18:44.816Z,2.9
2017-04-21T03:19:03.444Z,2.9
2017-04-21T03:19:22.387Z,2.9
2017-04-21T03:19:41.017Z,2.9
2017-04-21T03:19:59.680Z,2.9
2017-04-21T03:20:18.309Z,2.9
2017-04-21T03:20:36.939Z,2.9
2017-04-21T03:20:55.569Z,2.9
2017-04-21T03:21:14.196Z,2.9
2017-04-21T03:21:32.819Z,2.9
2017-04-21T03:21:51.466Z,2.9
2017-04-21T03:22:10.101Z,2.9
2017-04-21T03:22:28.734Z,2.9
2017-04-21T03:22:47.365Z,2.9
2017-04-21T03:23:05.990Z,2.9
2017-04-21T03:23:24.682Z,2.9
2017-04-21T03:23:43.310Z,2.9
2017-04-21T03:24:01.958Z,2.9
2017-04-21T03:24:20.592Z,2.9
2017-04-21T03:24:39.219Z,2.9
2017-04-21T03:24:57.848Z,2.9
2017-04-21T03:25:16.481Z,2.9
2017-04-21T03:25:35.107Z,2.9
2017-04-21T03:25:53.736Z,2.9
2017-04-21T03:26:12.367Z,2.9
2017-04-21T03:26:30.995Z,2.9
2017-04-21T03:26:49.652Z,2.9
2017-04-21T03:27:08.277Z,2.9
2017-04-21T03:27:26.902Z,2.9
2017-04-21T03:27:45.528Z,2.9
2017-04-21T03:28:04.158Z,2.9
2017-04-21T03:28:22.790Z,2.9
2017-04-21T03:28:41.462Z,2.9
2017-04-21T03:29:00.097Z,2.9
2017-04-21T03:29:18.728Z,2.9
2017-04-21T03:29:37.370Z,2.9
2017-04-21T03:29:56.000Z,2.9
2017-04-21T03:30:14.659Z,2.9
2017-04-21T03:30:33.287Z,2.9
2017-04-21T03:30:51.912Z,2.9
2017-04-21T03:31:10.544Z,2.9
2017-04-21T03:31:29.173Z,2.9
2017-04-21T03:31:47.803Z,2.9
2017-04-21T03:32:06.436Z,2.8
2017-04-21T03:32:25.060Z,2.9
2017-04-21T03:32:43.686Z,2.9
2017-04-21T03:33:02.313Z,2.9
2017-04-21T03:33:20.939Z,2.9
2017-04-21T03:33:39.602Z,2.9
2017-04-21T03:33:58.259Z,2.8
2017-04-21T03:34:16.883Z,2.9
2017-04-21T03:34:35.516Z,2.9
2017-04-21T03:34:54.149Z,2.8
2017-04-21T03:35:12.774Z,2.8
2017-04-21T03:35:31.412Z,2.8
2017-04-21T03:35:50.044Z,2.8
2017-04-21T03:36:08.675Z,2.8
2017-04-21T03:36:27.304Z,2.8
2017-04-21T03:36:45.932Z,2.8
2017-04-21T03:37:04.592Z,2.8
2017-04-21T03:37:23.215Z,2.8
2017-04-21T03:37:41.846Z,2.8
2017-04-21T03:38:00.474Z,2.8
2017-04-21T03:38:19.100Z,2.8
2017-04-21T03:38:37.795Z,2.8
2017-04-21T03:38:56.424Z,2.8
2017-04-21T03:39:15.059Z,2.8
2017-04-21T03:39:33.686Z,2.8
2017-04-21T03:39:52.324Z,2.8
2017-04-21T03:40:10.949Z,2.8
2017-04-21T03:40:29.602Z,2.8
2017-04-21T03:40:48.232Z,2.8
2017-04-21T03:41:06.855Z,2.8
2017-04-21T03:41:25.484Z,2.8
2017-04-21T03:41:44.113Z,2.8
2017-04-21T03:42:02.825Z,2.8
2017-04-21T03:42:21.454Z,2.8
2017-04-21T03:42:40.081Z,2.8
2017-04-21T03:42:58.712Z,2.8
2017-04-21T03:43:17.346Z,2.8
2017-04-21T03:43:35.993Z,2.7
2017-04-21T03:43:54.652Z,2.7
2017-04-21T03:44:13.279Z,2.7
2017-04-21T03:44:31.938Z,2.7
2017-04-21T03:44:50.563Z,2.7
2017-04-21T03:45:09.197Z,2.7
2017-04-21T03:45:27.830Z,2.8
2017-04-21T03:45:46.461Z,2.8
2017-04-21T03:46:05.086Z,2.8
2017-04-21T03:46:23.707Z,2.7
2017-04-21T03:46:42.332Z,2.7
2017-04-21T03:47:00.971Z,2.7
2017-04-21T03:47:19.637Z,2.7
2017-04-21T03:47:38.264Z,2.7
2017-04-21T03:47:56.895Z,2.7
2017-04-21T03:48:15.522Z,2.7
2017-04-21T03:48:34.150Z,2.7
2017-04-21T03:48:52.777Z,2.7
2017-04-21T03:49:11.410Z,2.7
2017-04-21T03:49:30.039Z,2.7
2017-04-21T03:49:48.680Z,2.7
2017-04-21T03:50:07.311Z,2.7
2017-04-21T03:50:25.944Z,2.7
2017-04-21T03:50:44.600Z,2.7
2017-04-21T03:51:03.225Z,2.7
2017-04-21T03:51:21.852Z,2.7
2017-04-21T03:51:40.481Z,2.7
2017-04-21T03:51:59.114Z,2.7
2017-04-21T03:52:17.744Z,2.6
2017-04-21T03:52:36.374Z,2.6
2017-04-21T03:52:55.002Z,2.6
2017-04-21T03:53:13.632Z,2.6
2017-04-21T03:53:32.260Z,2.6
2017-04-21T03:53:50.884Z,2.6
2017-04-21T03:54:09.540Z,2.6
2017-04-21T03:54:28.166Z,2.6
2017-04-21T03:54:46.796Z,2.6
2017-04-21T03:55:05.447Z,2.6
2017-04-21T03:55:24.075Z,2.6
2017-04-21T03:55:42.709Z,2.6
2017-04-21T03:56:01.345Z,2.5
2017-04-21T03:56:19.972Z,2.5
2017-04-21T03:56:38.606Z,2.5
2017-04-21T03:56:57.231Z,2.5
2017-04-21T03:57:15.861Z,2.5
2017-04-21T03:57:34.522Z,2.5
2017-04-21T03:57:53.150Z,2.5
2017-04-21T03:58:11.777Z,2.5
2017-04-21T03:58:30.407Z,2.5
2017-04-21T03:58:49.041Z,2.5
2017-04-21T03:59:07.671Z,2.5
2017-04-21T03:59:26.308Z,2.4
2017-04-21T03:59:44.958Z,2.4
2017-04-21T04:00:03.585Z,2.4
2017-04-21T04:00:22.221Z,2.4
2017-04-21T04:00:40.848Z,2.4
2017-04-21T04:00:59.513Z,2.4
2017-04-21T04:01:18.143Z,2.4
2017-04-21T04:01:36.771Z,2.4
2017-04-21T04:01:55.397Z,2.4
2017-04-21T04:02:14.025Z,2.3
2017-04-21T04:02:32.658Z,2.3
2017-04-21T04:02:51.297Z,2.3
2017-04-21T04:03:09.930Z,2.3
2017-04-21T04:03:28.561Z,2.3
2017-04-21T04:03:47.186Z,2.3
2017-04-21T04:04:05.809Z,2.3
2017-04-21T04:04:24.474Z,2.2
2017-04-21T04:04:43.102Z,2.2
2017-04-21T04:05:01.732Z,2.2
2017-04-21T04:05:20.360Z,2.2
2017-04-21T04:05:39.004Z,2.2
2017-04-21T04:05:57.641Z,2.2
2017-04-21T04:06:16.303Z,2.1
2017-04-21T04:06:34.943Z,2.1
2017-04-21T04:06:53.571Z,2.1
2017-04-21T04:07:12.195Z,2.1
2017-04-21T04:07:30.823Z,2.1
2017-04-21T04:07:49.479Z,2.1
2017-04-21T04:08:08.110Z,2.1
2017-04-21T04:08:26.739Z,2
2017-04-21T04:08:45.369Z,2
2017-04-21T04:09:04.005Z,2
2017-04-21T04:09:22.636Z,1.9
2017-04-21T04:09:41.269Z,1.9
2017-04-21T04:09:59.900Z,1.9
2017-04-21T04:10:18.533Z,1.8
2017-04-21T04:10:37.156Z,1.8
2017-04-21T04:10:55.788Z,1.8
2017-04-21T04:11:14.453Z,1.8
2017-04-21T04:11:33.086Z,1.8
2017-04-21T04:11:51.713Z,1.8
2017-04-21T04:12:10.342Z,1.7
2017-04-21T04:12:28.968Z,1.7
2017-04-21T04:12:47.592Z,1.7
2017-04-21T04:13:06.254Z,1.7
2017-04-21T04:13:24.888Z,1.7
2017-04-21T04:13:43.513Z,1.7
2017-04-21T04:14:02.142Z,1.7
2017-04-21T04:14:20.770Z,1.7
2017-04-21T04:14:39.430Z,1.6
2017-04-21T04:14:58.093Z,1.6
2017-04-21T04:15:16.722Z,1.6
2017-04-21T04:15:35.348Z,1.6
2017-04-21T04:15:53.981Z,1.6
2017-04-21T04:16:12.645Z,1.6
2017-04-21T04:16:31.271Z,1.6
2017-04-21T04:16:49.899Z,1.6